createdAt,value
2018-06-30T00:02:07.429Z,101004.62
2018-06-30T00:07:02.382Z,101018.38
2018-06-30T00:11:57.012Z,101010.17
2018-06-30T00:16:51.717Z,101005.83
2018-06-30T00:21:46.406Z,101003.05
2018-06-30T00:26:41.078Z,101000.70
2018-06-30T00:31:35.580Z,101003.27
2018-06-30T00:36:30.421Z,101000.14
2018-06-30T00:41:25.180Z,100995.00
2018-06-30T00:46:19.844Z,100992.89
2018-06-30T00:51:14.992Z,100990.20
2018-06-30T00:56:09.554Z,100982.48
2018-06-30T01:01:03.770Z,100990.77
2018-06-30T01:05:58.498Z,100990.67
2018-06-30T01:10:53.053Z,100989.66
2018-06-30T01:15:47.521Z,100984.14
2018-06-30T01:20:42.544Z,100979.13
2018-06-30T01:25:37.119Z,100987.70
2018-06-30T01:30:31.701Z,100988.77
2018-06-30T01:35:26.549Z,100992.16
2018-06-30T01:40:21.182Z,100992.33
2018-06-30T01:45:16.074Z,100996.05
2018-06-30T01:50:11.154Z,100994.26
2018-06-30T01:55:06.081Z,100991.64
2018-06-30T02:00:00.358Z,100986.83
2018-06-30T02:04:55.123Z,100988.20
2018-06-30T02:09:49.617Z,100989.60
2018-06-30T02:14:44.366Z,100983.03
2018-06-30T02:19:38.954Z,100984.43
2018-06-30T02:24:33.436Z,100979.95
2018-06-30T02:29:27.708Z,100979.50
2018-06-30T02:34:22.173Z,100981.24
2018-06-30T02:39:16.681Z,100983.98
2018-06-30T02:44:11.376Z,100982.66
2018-06-30T02:49:06.355Z,100986.38
2018-06-30T02:54:01.075Z,100983.72
2018-06-30T02:58:55.598Z,100985.11
2018-06-30T03:03:49.935Z,100983.31
2018-06-30T03:08:44.841Z,100983.84
2018-06-30T03:13:39.418Z,100994.30
2018-06-30T03:18:33.995Z,100983.29
2018-06-30T03:23:28.812Z,100980.88
2018-06-30T03:28:23.515Z,100978.93
2018-06-30T03:33:18.238Z,100984.14
2018-06-30T03:38:12.937Z,100987.33
2018-06-30T03:43:07.768Z,100979.91
2018-06-30T03:48:02.256Z,100992.43
2018-06-30T03:52:56.955Z,100987.45
2018-06-30T03:57:51.643Z,100986.59
2018-06-30T04:02:46.665Z,100991.08
2018-06-30T04:07:41.174Z,100987.73
2018-06-30T04:12:35.980Z,100992.47
2018-06-30T04:17:30.666Z,100992.30
2018-06-30T04:22:25.228Z,100996.59
2018-06-30T04:27:19.740Z,100990.33
2018-06-30T04:32:14.399Z,100984.11
2018-06-30T04:37:08.891Z,100991.52
2018-06-30T04:42:03.562Z,100992.27
2018-06-30T04:46:58.082Z,100989.72
2018-06-30T04:51:52.458Z,101003.97
2018-06-30T04:56:47.226Z,100995.72
2018-06-30T05:01:43.153Z,100998.97
2018-06-30T05:06:37.866Z,100998.77
2018-06-30T05:11:32.650Z,100999.55
2018-06-30T05:16:27.135Z,101000.81
2018-06-30T05:21:21.714Z,101005.95
2018-06-30T05:26:16.199Z,101004.42
2018-06-30T05:31:11.282Z,101001.25
2018-06-30T05:36:06.251Z,100994.72
2018-06-30T05:41:01.006Z,100990.99
2018-06-30T05:45:55.920Z,100991.58
2018-06-30T05:50:51.043Z,100995.64
2018-06-30T05:55:45.864Z,100997.62
2018-06-30T06:00:40.757Z,100991.85
2018-06-30T06:05:35.677Z,100992.77
2018-06-30T06:10:30.578Z,100997.29
2018-06-30T06:15:25.452Z,101001.89
2018-06-30T06:20:20.318Z,100998.88
2018-06-30T06:25:15.250Z,101006.62
2018-06-30T06:30:10.537Z,100998.58
2018-06-30T06:35:05.624Z,100997.19
2018-06-30T06:40:00.550Z,100997.73
2018-06-30T06:44:55.525Z,100994.72
2018-06-30T06:49:50.385Z,101000.34
2018-06-30T06:54:45.206Z,100995.42
2018-06-30T06:59:39.964Z,100998.63
2018-06-30T07:04:35.127Z,100996.86
2018-06-30T07:09:30.386Z,100992.17
2018-06-30T07:14:26.118Z,100986.75
2018-06-30T07:19:21.380Z,100985.00
2018-06-30T07:24:16.888Z,100985.37
2018-06-30T07:29:11.872Z,100983.83
2018-06-30T07:34:06.720Z,100983.63
2018-06-30T07:39:01.631Z,100988.59
2018-06-30T07:43:56.395Z,100989.29
2018-06-30T07:48:51.378Z,100987.23
2018-06-30T07:53:46.312Z,100989.61
2018-06-30T07:58:41.291Z,100973.80
2018-06-30T08:03:35.819Z,100982.81
2018-06-30T08:08:30.529Z,100973.39
2018-06-30T08:13:25.788Z,100980.12
2018-06-30T08:18:20.645Z,100972.86
2018-06-30T08:23:15.843Z,100974.66
2018-06-30T08:28:10.585Z,100969.02
2018-06-30T08:33:05.891Z,100971.30
2018-06-30T08:38:00.398Z,100975.53
2018-06-30T08:42:54.918Z,100970.59
2018-06-30T08:47:49.677Z,100959.01
2018-06-30T08:52:44.681Z,100959.09
2018-06-30T08:57:40.289Z,100966.57
2018-06-30T09:02:35.091Z,100954.33
2018-06-30T09:07:29.916Z,100953.87
2018-06-30T09:12:24.778Z,100959.23
2018-06-30T09:17:19.533Z,100949.40
2018-06-30T09:22:14.355Z,100947.83
2018-06-30T09:27:09.520Z,100942.91
2018-06-30T09:32:04.384Z,100937.92
2018-06-30T09:36:59.615Z,100927.84
2018-06-30T09:41:54.355Z,100933.25
2018-06-30T09:46:49.238Z,100925.30
2018-06-30T09:51:44.110Z,100918.97
2018-06-30T09:56:38.823Z,100911.73
2018-06-30T10:01:33.361Z,100902.61
2018-06-30T10:06:28.122Z,100896.72
2018-06-30T10:11:23.136Z,100902.30
2018-06-30T10:16:17.896Z,100892.03
2018-06-30T10:21:12.712Z,100888.34
2018-06-30T10:26:07.922Z,100881.55
2018-06-30T10:31:02.468Z,100881.41
2018-06-30T10:35:57.770Z,100883.19
2018-06-30T10:40:52.522Z,100873.91
2018-06-30T10:45:47.256Z,100869.84
2018-06-30T10:50:42.844Z,100862.70
2018-06-30T10:55:37.580Z,100864.84
2018-06-30T11:00:32.483Z,100856.45
2018-06-30T11:05:27.319Z,100857.30
2018-06-30T11:10:22.446Z,100850.47
2018-06-30T11:15:17.214Z,100848.95
2018-06-30T11:20:12.320Z,100851.23
2018-06-30T11:25:08.484Z,100842.20
2018-06-30T11:30:03.220Z,100838.37
2018-06-30T11:34:57.965Z,100830.09
2018-06-30T11:39:52.781Z,100820.55
2018-06-30T11:44:47.575Z,100823.07
2018-06-30T11:49:42.684Z,100826.67
2018-06-30T11:54:38.163Z,100821.73
2018-06-30T11:59:33.068Z,100821.93
2018-06-30T12:04:28.677Z,100824.31
2018-06-30T12:09:23.818Z,100813.34
2018-06-30T12:14:18.796Z,100812.30
2018-06-30T12:19:13.759Z,100794.81
2018-06-30T12:24:08.891Z,100796.19
2018-06-30T12:29:03.703Z,100791.48
2018-06-30T12:33:58.499Z,100787.09
2018-06-30T12:38:53.192Z,100786.87
2018-06-30T12:43:48.006Z,100788.66
2018-06-30T12:48:43.390Z,100782.86
2018-06-30T12:53:38.295Z,100778.67
2018-06-30T12:58:33.308Z,100777.06
2018-06-30T13:03:28.562Z,100778.35
2018-06-30T13:08:23.314Z,100787.54
2018-06-30T13:13:18.075Z,100774.53
2018-06-30T13:18:13.082Z,100770.91
2018-06-30T13:23:07.935Z,100765.50
2018-06-30T13:28:03.108Z,100759.92
2018-06-30T13:32:57.846Z,100761.77
2018-06-30T13:37:53.222Z,100751.67
2018-06-30T13:42:48.054Z,100744.23
2018-06-30T13:47:42.972Z,100743.52
2018-06-30T13:52:38.436Z,100745.52
2018-06-30T13:57:33.604Z,100742.73
2018-06-30T14:02:28.265Z,100745.55
2018-06-30T14:07:23.226Z,100744.14
2018-06-30T14:12:17.764Z,100733.69
2018-06-30T14:17:12.773Z,100735.09
2018-06-30T14:22:07.783Z,100727.66
2018-06-30T14:27:02.791Z,100720.63
2018-06-30T14:31:57.684Z,100726.57
2018-06-30T14:36:52.842Z,100727.75
2018-06-30T14:41:47.466Z,100719.44
2018-06-30T14:46:42.242Z,100722.02
2018-06-30T14:51:37.157Z,100715.37
2018-06-30T14:56:31.770Z,100713.42
2018-06-30T15:01:26.855Z,100704.25
2018-06-30T15:06:21.857Z,100705.75
2018-06-30T15:11:16.646Z,100705.48
2018-06-30T15:16:11.398Z,100706.56
2018-06-30T15:21:07.024Z,100703.94
2018-06-30T15:26:01.949Z,100703.80
2018-06-30T15:30:56.796Z,100700.14
2018-06-30T15:35:51.950Z,100701.20
2018-06-30T15:40:47.145Z,100697.33
2018-06-30T15:45:43.796Z,100699.45
2018-06-30T15:50:38.541Z,100688.92
2018-06-30T15:55:33.317Z,100695.70
2018-06-30T16:00:28.173Z,100694.32
2018-06-30T16:05:22.989Z,100699.62
2018-06-30T16:10:18.377Z,100695.45
2018-06-30T16:15:14.106Z,100690.42
2018-06-30T16:20:08.674Z,100674.67
2018-06-30T16:25:03.436Z,100684.03
2018-06-30T16:29:58.558Z,100684.52
2018-06-30T16:34:53.809Z,100677.73
2018-06-30T16:39:48.590Z,100681.97
2018-06-30T16:44:43.689Z,100686.02
2018-06-30T16:49:38.566Z,100677.48
2018-06-30T16:54:33.761Z,100678.14
2018-06-30T16:59:28.552Z,100674.90
2018-06-30T17:04:23.430Z,100679.29
2018-06-30T17:09:18.205Z,100683.28
2018-06-30T17:14:12.900Z,100682.66
2018-06-30T17:19:07.816Z,100686.55
2018-06-30T17:24:03.127Z,100699.69
2018-06-30T17:28:58.416Z,100690.36
2018-06-30T17:33:53.121Z,100688.28
2018-06-30T17:39:05.921Z,100684.81
2018-06-30T17:44:00.765Z,100688.57
2018-06-30T17:48:55.782Z,100697.64
2018-06-30T17:53:50.551Z,100700.88
2018-06-30T17:58:45.391Z,100704.61
2018-06-30T18:03:40.163Z,100708.16
2018-06-30T18:08:35.111Z,100710.52
2018-06-30T18:13:30.154Z,100722.52
2018-06-30T18:18:24.898Z,100709.89
2018-06-30T18:23:19.685Z,100725.92
2018-06-30T18:28:14.328Z,100721.71
2018-06-30T18:33:08.834Z,100740.98
2018-06-30T18:38:03.295Z,100734.11
2018-06-30T18:42:58.214Z,100737.10
2018-06-30T18:47:52.551Z,100737.68
2018-06-30T18:52:47.080Z,100752.17
2018-06-30T18:57:41.770Z,100758.16
2018-06-30T19:02:36.277Z,100757.88
2018-06-30T19:07:30.802Z,100760.47
2018-06-30T19:12:25.271Z,100764.94
2018-06-30T19:17:19.981Z,100771.22
2018-06-30T19:22:14.818Z,100771.28
2018-06-30T19:27:09.304Z,100775.16
2018-06-30T19:32:03.844Z,100788.56
2018-06-30T19:36:58.467Z,100799.58
2018-06-30T19:41:53.065Z,100813.09
2018-06-30T19:46:49.279Z,100806.25
2018-06-30T19:51:43.790Z,100824.81
2018-06-30T19:56:38.479Z,100827.11
2018-06-30T20:01:33.108Z,100829.19
2018-06-30T20:06:27.593Z,100839.26
2018-06-30T20:11:22.454Z,100847.58
2018-06-30T20:16:17.453Z,100850.01
2018-06-30T20:21:11.976Z,100856.45
2018-06-30T20:26:06.718Z,100851.39
2018-06-30T20:31:01.169Z,100862.20
2018-06-30T20:35:56.263Z,100869.67
2018-06-30T20:40:51.774Z,100881.31
2018-06-30T20:45:46.947Z,100886.56
2018-06-30T20:50:41.734Z,100886.37
2018-06-30T20:55:37.101Z,100887.19
2018-06-30T21:00:31.584Z,100896.92
2018-06-30T21:05:26.564Z,100901.48
2018-06-30T21:10:20.880Z,100908.69
2018-06-30T21:15:15.480Z,100903.58
2018-06-30T21:20:10.528Z,100908.41
2018-06-30T21:25:06.466Z,100913.07
2018-06-30T21:30:01.606Z,100919.56
2018-06-30T21:34:56.950Z,100919.52
2018-06-30T21:39:51.775Z,100930.94
2018-06-30T21:44:46.064Z,100933.19
2018-06-30T21:49:41.234Z,100937.64
2018-06-30T21:54:35.755Z,100934.50
2018-06-30T21:59:30.377Z,100939.11
2018-06-30T22:04:25.061Z,100944.41
2018-06-30T22:09:20.327Z,100947.66
2018-06-30T22:14:15.905Z,100946.69
2018-06-30T22:19:10.762Z,100956.22
2018-06-30T22:24:05.649Z,100954.41
2018-06-30T22:29:00.933Z,100962.17
2018-06-30T22:33:56.222Z,100960.88
2018-06-30T22:38:51.230Z,100969.36
2018-06-30T22:43:45.937Z,100959.77
2018-06-30T22:48:40.775Z,100967.91
2018-06-30T22:53:35.333Z,100966.23
2018-06-30T22:58:30.355Z,100962.78
2018-06-30T23:03:25.175Z,100964.38
2018-06-30T23:08:19.952Z,100971.70
2018-06-30T23:13:18.758Z,100991.56
2018-06-30T23:18:13.183Z,100969.34
2018-06-30T23:23:10.028Z,100977.36
2018-06-30T23:28:05.148Z,100978.77
2018-06-30T23:32:59.806Z,100995.81
2018-06-30T23:37:57.314Z,100981.47
2018-06-30T23:42:52.061Z,100984.02
2018-06-30T23:47:47.058Z,100980.08
2018-06-30T23:52:43.192Z,100984.45
2018-06-30T23:57:37.898Z,100986.37
